New York JFK, NY

11:42 PM EDT on May 29, 2017 (GMT -0400)
Kennedy International | | Change Station
Active Advisory: Coastal Flood Statement Active Notice: Coastal Flood Statement

Elev 10 ft 40.64 °N, 73.78 °W | Updated 32 minutes ago

Overcast
Overcast
57 °F
Feels Like 57 °F
N
8
Wind Variable Wind from ESE

Today
High -- | Low -- °F
--% Chance of Precip.
Yesterday
High -- | Low -- °F
Precip. -- in
Pressure 30.10 in
Visibility 10.0 miles
Clouds Mostly Cloudy 800 ft
Overcast 1400 ft
Dew Point 55 °F
Humidity 93%
Rainfall 0.29 in
Snow Depth Not available.
5:27 AM 8:17 PM
Waxing Crescent, 25% visible
SPECI KJFK 300310Z 11007KT 10SM BKN008 OVC014 14/13 A3010 RMK AO2 T01390128
Pressure 30.10 in
Visibility 10.0 miles
Clouds Mostly Cloudy 800 ft
Overcast 1400 ft
Dew Point 55 °F
Humidity 93%
Rainfall 0.29 in
Snow Depth Not available.
5:27 AM 8:17 PM
Waxing Crescent, 25% visible
SPECI KJFK 300310Z 11007KT 10SM BKN008 OVC014 14/13 A3010 RMK AO2 T01390128

Get Your Daily Forecast Email!

Thanks for signing up!

Be on the lookout for a verification email in your inbox.

You'll start receiving severe weather alerts in your inbox..

×

10-Day Weather Forecast

Almanac

Astronomy

May. 29, 2017 Rise Set
Actual Time
Civil Twilight
Nautical Twilight
Astronomical Twilight
Moon
Length of Visible Light
Length of Day
Tomorrow will be .
, % of the Moon is Illuminated

Today's Extremes

State Highs State Lows

Community

WunderPhotos

Category 6

Welcome to Category 6. This is the collective home for Weather Underground's featured writeups by Dr. Jeff Masters (right), Bob Henson (left), Chris Burt, and other regular contributors.

Nearby

Air Quality

  Air Quality AQ Index Pollutant
Not available.

Snow Depth

Station Depth Elevation

Earthquake Activity

City Distance Mag. Time & Date
Minimum magnitude displayed is 2.5.

Coastal Water Temperatures

Place Temperature

Stations

Nearby Weather Stations

Station Location Temp. Windchill Dew Point Humidity Wind Precip. Elev Updated Type
                   

Watches & Warnings

Coastal Flood Statement
Issued: 8:25 PM EDT May. 29, 2017 – National Weather Service

* locations... northeast New Jersey... southern Westchester...
southern Fairfield... and the South Shore back bays of New York
City and Nassau County.

* Positive tidal departures... 1 to 1 1/2 ft.

* Timing... around the times of high tide tonight.

* Impacts... brief minor flooding of the most vulnerable Waterfront
and shoreline roads.


Jmc


825 PM EDT Mon may 29 2017

* locations... northeast New Jersey... southern Westchester...
southern Fairfield... and the South Shore back bays of New York
City and Nassau County.

* Positive tidal departures... 1 to 1 1/2 ft.

* Timing... around the times of high tide tonight.

* Impacts... brief minor flooding of the most vulnerable Waterfront
and shoreline roads.


Jmc